Flight Track Log - Related Links

Times and Time Zones

All times are in EDT time to prevent confusion due to time zone crossing. See the UAL3779 flight status page for this flight to view local times or setup timezone preferences in your user account.

Time Position Orientation Groundspeed Altitude Reporting Facility
EDT Latitude Longitude Course Direction KTS MPH feet Rate Location/Type
Sat 06:01:00 PM 38.9644 -77.5244 313° West 179 206 2,100  Level Washington Center
Sat 06:02:00 PM 39.0053 -77.5817 313° West 218 251 4,000 2,500 Climbing Washington Center
Sat 06:03:00 PM 39.0672 -77.6156 337° Northwest 250 288 7,100 3,200 Climbing Washington Center
Sat 06:04:00 PM 39.1422 -77.6256 354° North 266 306 10,400 2,350 Climbing Washington Center
Sat 06:05:00 PM 39.2233 -77.6358 354° North 281 323 11,800 1,800 Climbing Washington Center
Sat 06:06:00 PM 39.3189 -77.6492 354° North 313 360 14,000 2,200 Climbing Washington Center
Sat 06:07:00 PM 39.4017 -77.6919 338° Northwest 326 375 16,200 1,950 Climbing Washington Center
Sat 06:08:00 PM 39.4667 -77.7769 315° West 319 367 17,900 1,800 Climbing Washington Center
Sat 06:09:00 PM 39.5339 -77.8681 314° West 332 382 19,800 1,633 Climbing Washington Center
Sat 06:10:38 PM 39.5994 -78.0667 293° West 346 398 22,200 1,481 Climbing Cleveland Center
Sat 06:11:38 PM 39.6378 -78.1947 291° West 365 420 23,700 1,600 Climbing Cleveland Center
Sat 06:12:38 PM 39.6758 -78.3256 291° West 380 437 25,400 1,400 Climbing Cleveland Center
Sat 06:13:38 PM 39.7139 -78.4564 291° West 386 444 26,500 1,200 Climbing Cleveland Center
Sat 06:14:38 PM 39.7494 -78.5903 289° West 391 450 27,800 750 Climbing Cleveland Center
Sat 06:15:38 PM 39.7936 -78.7378 291° West 391 450 28,000 100 Climbing Cleveland Center
Sat 06:16:38 PM 39.8375 -78.8772 292° West 402 463 28,000  Level Cleveland Center
Sat 06:17:38 PM 39.8747 -79.0033 291° West 413 475 28,000  Level Cleveland Center
Sat 06:18:38 PM 39.9164 -79.1431 291° West 413 475 28,000  Level Cleveland Center
Sat 06:19:38 PM 39.9556 -79.2803 290° West 408 470 28,000  Level Cleveland Center
Sat 06:20:38 PM 40.0069 -79.4150 297° West 408 470 28,000  Level Cleveland Center
Sat 06:21:38 PM 40.0708 -79.5386 304° West 408 470 28,000  Level Cleveland Center
Sat 06:22:38 PM 40.1364 -79.6681 304° West 423 487 28,000  Level Cleveland Center
Sat 06:23:38 PM 40.2000 -79.7947 303° West 423 487 28,000  Level Cleveland Center
Sat 06:24:38 PM 40.2653 -79.9219 304° West 428 493 28,000  Level Cleveland Center
Sat 06:25:38 PM 40.3308 -80.0603 302° West 423 487 28,000  Level Cleveland Center
Sat 06:26:38 PM 40.3958 -80.1878 304° West 423 487 28,000  Level Cleveland Center
Sat 06:27:38 PM 40.4589 -80.3131 304° West 412 474 28,000  Level Cleveland Center
Sat 06:28:38 PM 40.5214 -80.4328 305° West 407 468 28,000  Level Cleveland Center
Sat 06:29:38 PM 40.5842 -80.5558 304° West 407 468 28,000  Level Cleveland Center
Sat 06:30:38 PM 40.6444 -80.6817 302° West 407 468 28,000  Level Cleveland Center
Sat 06:31:38 PM 40.7069 -80.8050 304° West 407 468 28,000  Level Cleveland Center
Sat 06:32:38 PM 40.7692 -80.9314 303° West 407 468 28,000  Level Cleveland Center
Sat 06:33:38 PM 40.8208 -81.0386 303° West 412 474 28,000  Level Cleveland Center
Sat 06:34:38 PM 40.8889 -81.1819 302° West 412 474 28,000  Level Cleveland Center
Sat 06:35:38 PM 40.9508 -81.3144 302° West 417 480 28,000  Level Cleveland Center
Sat 06:36:38 PM 41.0144 -81.4444 303° West 417 480 28,000  Level Cleveland Center
Sat 06:37:38 PM 41.0758 -81.5747 302° West 417 480 28,000 -150 Level Cleveland Center
Sat 06:38:38 PM 41.1475 -81.7164 304° West 417 480 27,700 -650 Descending Cleveland Center
Sat 06:39:38 PM 41.2089 -81.8417 303° West 417 480 26,700 -1,000 Descending Cleveland Center
Sat 06:40:38 PM 41.2658 -81.9644 302° West 417 480 25,700 -1,200 Descending Cleveland Center
Sat 06:41:38 PM 41.3289 -82.0928 303° West 412 474 24,300 -1,700 Descending Cleveland Center
Sat 06:42:38 PM 41.3814 -82.2019 303° West 412 474 22,300 -2,150 Descending Cleveland Center
Sat 06:43:38 PM 41.4467 -82.3117 308° West 391 450 20,000 -2,300 Descending Cleveland Center
Sat 06:44:38 PM 41.5094 -82.4186 308° West 375 432 17,700 -2,423 Descending Cleveland Center
Sat 06:45:22 PM 41.5603 -82.5008 310° West 342 394 15,800 -2,300 Descending Cleveland Center
Sat 06:45:38 PM 41.5683 -82.5147 308° West 349 402 15,400 -1,899 Descending Cleveland Center
Sat 06:46:41 PM 41.6333 -82.6222 309° West 306 352 13,300 -1,600 Descending Cleveland Center
Sat 06:47:38 PM 41.6758 -82.6958 308° West 321 369 12,200 -590 Descending Cleveland Center
Sat 06:48:43 PM 41.7467 -82.8042 311° West 336 387 12,100 -50 Descending Cleveland Center
Sat 06:49:38 PM 41.8036 -82.8756 317° Northwest 326 375 12,100  Level Cleveland Center
Sat 06:50:38 PM 41.8728 -82.9592 318° Northwest 331 381 12,100  Level Cleveland Center
Sat 06:51:38 PM 41.9358 -83.0339 319° Northwest 326 375 12,100  Level Cleveland Center
Sat 06:52:38 PM 41.9886 -83.0975 318° Northwest 289 333 12,100  Level Cleveland Center
Sat 06:53:38 PM 42.0353 -83.1553 317° Northwest 251 289 12,100 -51 Level Cleveland Center
Sat 06:54:35 PM 42.0944 -83.2108 325° Northwest 251 289 12,000 -619 Descending Cleveland Center
Sat 06:55:15 PM 42.1372 -83.2094 North 254 292 11,100 -1,424 Descending FAA TRACON
Sat 06:55:34 PM 42.1589 -83.2075 North 253 291 10,600 -2,100 Descending FAA TRACON
Sat 06:55:55 PM 42.1850 -83.2006 11° North 261 300 9,700 -2,488 Descending FAA TRACON
Sat 06:56:15 PM 42.2056 -83.1867 27° Northeast 261 300 8,900 -2,850 Descending FAA TRACON
Sat 06:56:35 PM 42.2317 -83.1683 27° Northeast 278 320 7,800 -3,000 Descending FAA TRACON
Sat 06:56:55 PM 42.2531 -83.1542 26° Northeast 277 319 6,900 -2,550 Descending FAA TRACON
Sat 06:57:15 PM 42.2736 -83.1408 26° Northeast 270 311 6,100 -2,400 Descending FAA TRACON
Sat 06:57:35 PM 42.3000 -83.1244 25° Northeast 271 312 5,300 -2,100 Descending FAA TRACON
Sat 06:57:55 PM 42.3206 -83.1133 22° Northeast 260 299 4,700 -1,538 Descending FAA TRACON
Sat 06:58:14 PM 42.3394 -83.1042 20° North 232 267 4,300 -900 Descending FAA TRACON
Sat 06:58:35 PM 42.3614 -83.1058 357° North 190 219 4,100 -300 Descending FAA TRACON
Sat 06:58:54 PM 42.3728 -83.1217 314° West 187 215 4,100  Level FAA TRACON
Sat 06:59:15 PM 42.3833 -83.1381 311° West 190 219 4,100  Level FAA TRACON
Sat 06:59:35 PM 42.3967 -83.1581 312° West 190 219 4,100  Level FAA TRACON
Sat 06:59:54 PM 42.4022 -83.1769 292° West 169 194 4,100  Level FAA TRACON
Sat 07:00:15 PM 42.3969 -83.1956 249° West 155 178 4,100  Level FAA TRACON
Sat 07:00:35 PM 42.3872 -83.2106 229° Southwest 152 175 4,100  Level FAA TRACON
Sat 07:00:55 PM 42.3758 -83.2197 211° Southwest 149 171 4,100  Level FAA TRACON
Sat 07:01:15 PM 42.3653 -83.2275 209° Southwest 145 167 4,100 -308 Level FAA TRACON
Sat 07:01:34 PM 42.3528 -83.2361 207° Southwest 145 167 3,900 -750 Descending FAA TRACON
Sat 07:01:55 PM 42.3400 -83.2453 208° Southwest 149 171 3,600 -878 Descending FAA TRACON
Sat 07:02:15 PM 42.3292 -83.2536 210° Southwest 148 170 3,300 -900 Descending FAA TRACON
Sat 07:02:35 PM 42.3158 -83.2636 209° Southwest 146 168 3,000 -900 Descending FAA TRACON
Sat 07:02:55 PM 42.3025 -83.2731 208° Southwest 148 170 2,700 -900 Descending FAA TRACON
Sat 07:03:15 PM 42.2919 -83.2808 209° Southwest 141 162 2,400 -750 Descending FAA TRACON
Sat 07:03:35 PM 42.2811 -83.2889 209° Southwest 128 147 2,200 -600 Descending FAA TRACON
Sat 07:03:55 PM 42.2722 -83.2953 208° Southwest 124 143 2,000 -769 Descending FAA TRACON
Sat 07:04:14 PM 42.2608 -83.3036 208° Southwest 124 143 1,700 -750 Descending FAA TRACON
Sat 07:04:35 PM 42.2514 -83.3106 209° Southwest 133 153 1,500 -585 Descending FAA TRACON
Sat 07:04:55 PM 42.2392 -83.3197 209° Southwest 143 165 1,300 -750 Descending FAA TRACON
Sat 07:05:15 PM 42.2264 -83.3292 209° Southwest 140 161 1,000 -900 Descending FAA TRACON

Login

Don't have an account? Register now (free) for customized features, flight alerts, and more!